Terminal Aerodrome Forecast
Issued by NWS

Home | Current Version | Previous Version | Graphics & Text | Print | Product List | Glossary On
Versions: 1 2 3 4 5 6 7 8 9 10 11 12 13 14 15 16 17 18 19 20 21
071
FTUS43 KBIS 241123
TAFMOT
TAF
KMOT 241123Z 2412/2512 32006KT P6SM SCT040
     FM250200 24004KT P6SM SCT090
     FM250700 26007KT P6SM BKN030=

USA.gov is the U.S. government's official web portal to all federal, state and local government web resources and services.